Time;durP1;ratioP1;P1;durP2;ratioP2;P2;SDS_P1;SDS_P2;PMS_P1;PMS_P2;Temp;Humidity;BMP_temperature;BMP_pressure;BME280_temperature;BME280_humidity;BME280_pressure;Samples;Min_cycle;Max_cycle;Signal;HPM_P1;HPM_P2
2023/08/13 00:01:40;;;;;;;13.23;6.00;;;;;;;18.41;59.42;100904.84;127423;1101;102010;-74
2023/08/13 00:04:12;;;;;;;17.70;5.85;;;;;;;18.36;60.29;100921.63;127452;1101;101374;-74
2023/08/13 00:06:44;;;;;;;14.40;6.03;;;;;;;18.24;60.46;100915.30;127254;1102;101593;-74
2023/08/13 00:09:15;;;;;;;13.53;5.73;;;;;;;18.19;60.84;100913.48;127481;1101;101107;-74
2023/08/13 00:11:46;;;;;;;16.93;5.37;;;;;;;18.12;60.51;100916.06;127416;1101;101218;-74
2023/08/13 00:14:18;;;;;;;11.73;5.80;;;;;;;18.10;60.68;100911.59;127141;1104;102010;-73
2023/08/13 00:16:49;;;;;;;14.07;5.97;;;;;;;18.04;61.05;100915.06;127227;1102;101852;-75
2023/08/13 00:19:21;;;;;;;11.57;5.17;;;;;;;18.02;60.55;100915.94;126367;1102;101706;-75
2023/08/13 00:21:52;;;;;;;13.73;5.50;;;;;;;17.98;61.32;100920.30;126401;1102;101252;-74
2023/08/13 00:24:24;;;;;;;10.50;5.40;;;;;;;17.92;61.56;100915.83;127397;1101;101091;-74
2023/08/13 00:26:55;;;;;;;14.67;5.37;;;;;;;17.88;61.06;100911.34;127069;1104;102007;-74
2023/08/13 00:29:26;;;;;;;14.80;5.60;;;;;;;17.85;61.45;100915.70;127435;1102;101300;-75
2023/08/13 00:31:57;;;;;;;11.77;5.23;;;;;;;17.81;61.38;100920.09;127188;1103;101227;-75
2023/08/13 00:34:29;;;;;;;10.53;4.97;;;;;;;17.76;61.32;100916.46;126326;1105;101334;-74
2023/08/13 00:37:00;;;;;;;10.57;5.43;;;;;;;17.71;61.72;100923.48;127178;1102;101443;-74
2023/08/13 00:39:32;;;;;;;13.73;5.47;;;;;;;17.67;62.10;100929.61;127193;1103;101900;-75
2023/08/13 00:42:03;;;;;;;13.03;5.53;;;;;;;17.65;62.31;100926.05;127349;1101;101326;-76
2023/08/13 00:44:35;;;;;;;13.53;5.80;;;;;;;17.61;62.37;100922.48;127416;1101;101173;-76
2023/08/13 00:47:06;;;;;;;11.50;5.37;;;;;;;17.59;62.31;100919.80;127242;1101;101137;-75
2023/08/13 00:49:38;;;;;;;12.90;5.30;;;;;;;17.58;62.33;100920.66;126359;1104;101177;-75
2023/08/13 00:52:09;;;;;;;16.07;5.20;;;;;;;17.57;62.68;100921.52;127419;1102;101937;-75
2023/08/13 00:54:41;;;;;;;13.13;5.43;;;;;;;17.57;62.51;100915.33;127230;1103;101386;-76
2023/08/13 00:57:13;;;;;;;12.07;5.07;;;;;;;17.55;62.63;100911.78;127278;1102;101410;-76
2023/08/13 00:59:45;;;;;;;11.50;4.90;;;;;;;17.53;62.44;100914.41;127245;1103;101118;-76
2023/08/13 01:02:16;;;;;;;12.83;5.20;;;;;;;17.54;62.16;100916.17;127260;1103;101072;-76
2023/08/13 01:04:48;;;;;;;8.63;4.87;;;;;;;17.53;62.82;100913.50;126332;1105;101925;-76
2023/08/13 01:07:26;;;;;;;13.23;5.70;;;;;;;17.53;63.13;100918.80;127087;1101;101262;-76
2023/08/13 01:10:09;;;;;;;12.80;5.50;;;;;;;17.50;63.23;100917.02;127195;1104;101101;-75
2023/08/13 01:12:49;;;;;;;14.30;5.13;;;;;;;17.50;63.12;100914.37;127385;1101;101150;-76
2023/08/13 01:15:27;;;;;;;15.73;5.33;;;;;;;17.49;62.67;100919.66;127385;1101;101113;-75
2023/08/13 01:17:59;;;;;;;11.23;5.13;;;;;;;17.50;63.25;100919.67;126306;1105;102017;-78
2023/08/13 01:20:33;;;;;;;14.43;5.70;;;;;;;17.50;63.08;100914.37;127168;1104;101268;-75
2023/08/13 01:23:05;;;;;;;13.83;5.27;;;;;;;17.51;62.81;100913.47;127235;1103;101121;-75
2023/08/13 01:25:37;;;;;;;10.80;4.93;;;;;;;17.53;62.66;100913.50;127199;1103;101093;-75
2023/08/13 01:28:19;;;;;;;11.08;4.90;;;;;;;17.52;63.07;100919.70;127114;1104;101307;-75
2023/08/13 01:30:58;;;;;;;12.17;5.20;;;;;;;17.49;62.78;100917.88;127450;1101;101979;-75
2023/08/13 01:33:33;;;;;;;12.33;5.20;;;;;;;17.46;63.07;100917.84;127429;1101;101287;-74
2023/08/13 01:36:16;;;;;;;;;;;;;;;;;;;;;
2023/08/13 01:38:51;;;;;;;10.83;4.97;;;;;;;17.39;62.78;100910.65;126343;1104;101320;-76
2023/08/13 01:41:23;;;;;;;10.23;4.73;;;;;;;17.38;62.94;100914.19;127222;1104;101107;-75
2023/08/13 01:43:54;;;;;;;9.20;4.87;;;;;;;17.36;63.48;100905.33;127166;1103;101969;-75
2023/08/13 01:46:25;;;;;;;10.87;4.80;;;;;;;17.34;63.12;100907.96;127215;1103;101359;-76
2023/08/13 01:48:57;;;;;;;13.67;4.93;;;;;;;17.32;63.47;100906.14;127264;1101;101475;-75
2023/08/13 01:51:28;;;;;;;8.93;4.70;;;;;;;17.29;63.11;100908.75;127404;1101;101101;-76
2023/08/13 01:53:59;;;;;;;11.63;4.80;;;;;;;17.25;63.47;100905.17;127478;1101;101028;-75
2023/08/13 01:56:31;;;;;;;10.33;4.77;;;;;;;17.22;63.32;100905.13;127446;1102;101952;-75
2023/08/13 01:59:03;;;;;;;12.63;5.53;;;;;;;17.22;63.38;100907.78;127173;1102;101299;-76
2023/08/13 02:01:34;;;;;;;10.37;4.87;;;;;;;17.21;64.10;100909.52;126346;1105;101140;-76
2023/08/13 02:04:06;;;;;;;13.77;5.53;;;;;;;17.18;64.29;100905.94;127219;1103;101108;-76
2023/08/13 02:06:38;;;;;;;15.53;5.03;;;;;;;17.14;63.93;100904.09;127217;1103;101077;-76
2023/08/13 02:09:09;;;;;;;13.10;5.07;;;;;;;17.11;63.91;100904.05;127209;1102;102020;-76
2023/08/13 02:11:41;;;;;;;10.63;4.80;;;;;;;17.07;63.63;100911.08;127421;1101;101288;-76
2023/08/13 02:14:12;;;;;;;10.70;4.85;;;;;;;17.02;64.40;100912.77;127420;1101;101533;-76
2023/08/13 02:16:43;;;;;;;10.90;4.83;;;;;;;17.00;64.37;100914.48;126333;1102;101630;-77
2023/08/13 02:19:15;;;;;;;13.07;4.53;;;;;;;16.98;64.32;100918.87;126324;1105;101524;-78
2023/08/13 02:21:46;;;;;;;12.73;5.00;;;;;;;16.95;64.77;100914.41;127202;1103;102012;-76
2023/08/13 02:24:17;;;;;;;9.43;4.80;;;;;;;16.94;64.44;100909.08;127167;1104;101306;-77
2023/08/13 02:26:49;;;;;;;10.10;4.57;;;;;;;16.91;64.70;100911.68;127210;1103;101108;-75
2023/08/13 02:29:20;;;;;;;14.03;5.40;;;;;;;16.89;65.04;100909.01;127196;1102;102276;-76
2023/08/13 02:31:51;;;;;;;11.33;5.30;;;;;;;16.85;64.75;100912.46;127227;1103;101067;-77
2023/08/13 02:34:24;;;;;;;11.00;5.10;;;;;;;16.82;65.44;100915.06;127432;1101;101980;-76
2023/08/13 02:36:55;;;;;;;14.57;5.37;;;;;;;16.79;65.38;100925.61;127447;1101;101185;-76
2023/08/13 02:39:28;;;;;;;11.30;4.93;;;;;;;16.74;65.77;100914.93;127279;1101;101151;-77
2023/08/13 02:42:01;;;;;;;10.30;4.80;;;;;;;16.70;65.43;100910.43;127227;1104;101093;-76
2023/08/13 02:44:33;;;;;;;10.77;4.93;;;;;;;16.67;65.45;100913.03;127197;1103;101082;-76
2023/08/13 02:47:04;;;;;;;9.10;4.83;;;;;;;16.66;65.74;100916.56;127226;1103;101978;-76
2023/08/13 02:49:36;;;;;;;9.57;5.13;;;;;;;16.63;65.10;100909.44;126308;1105;101430;-76
2023/08/13 02:52:08;;;;;;;9.60;4.90;;;;;;;16.62;65.56;100915.59;127222;1103;101121;-76
2023/08/13 02:54:39;;;;;;;11.60;4.77;;;;;;;16.60;65.01;100916.45;127212;1103;101162;-75
2023/08/13 02:57:10;;;;;;;15.80;5.50;;;;;;;16.61;65.54;100920.87;126370;1105;101139;-75
2023/08/13 02:59:42;;;;;;;11.97;4.70;;;;;;;16.65;65.13;100920.06;127056;1103;101968;-75
2023/08/13 03:02:16;;;;;;;11.77;5.30;;;;;;;16.65;65.32;100915.65;126336;1103;101275;-75
2023/08/13 03:04:47;;;;;;;10.33;5.10;;;;;;;16.66;65.28;100919.22;126343;1105;101693;-75
2023/08/13 03:07:19;;;;;;;12.07;5.27;;;;;;;16.68;65.95;100922.77;127154;1103;101096;-75
2023/08/13 03:09:50;;;;;;;13.63;5.17;;;;;;;16.68;65.83;100925.42;127086;1103;101501;-76
2023/08/13 03:12:22;;;;;;;7.53;4.53;;;;;;;16.65;65.99;100928.02;126325;1105;102033;-75
2023/08/13 03:14:53;;;;;;;11.53;5.53;;;;;;;16.61;65.44;100924.43;127123;1104;101336;-76
2023/08/13 03:17:25;;;;;;;14.00;4.93;;;;;;;16.59;66.18;100926.14;127206;1103;101115;-75
2023/08/13 03:19:58;;;;;;;13.00;4.90;;;;;;;16.61;66.14;100934.11;126272;1105;101444;-75
2023/08/13 03:22:30;;;;;;;11.65;5.03;;;;;;;16.61;66.69;100935.03;126430;1102;101108;-75
2023/08/13 03:25:01;;;;;;;11.73;5.13;;;;;;;16.60;66.04;100933.23;127412;1102;101936;-75
2023/08/13 03:27:33;;;;;;;12.53;4.83;;;;;;;16.61;66.80;100936.77;127384;1101;101298;-75
2023/08/13 03:30:04;;;;;;;13.37;5.13;;;;;;;16.61;66.90;100942.06;126383;1101;101145;-75
2023/08/13 03:32:36;;;;;;;8.90;4.50;;;;;;;16.58;67.10;100939.36;127397;1101;101109;-75
2023/08/13 03:35:08;;;;;;;16.37;5.00;;;;;;;16.55;66.87;100950.81;126395;1102;101116;-75
2023/08/13 03:37:40;;;;;;;12.03;5.30;;;;;;;16.50;67.65;100953.38;126355;1102;102004;-75
2023/08/13 03:40:13;;;;;;;9.53;4.87;;;;;;;16.47;66.87;100953.31;126316;1102;101535;-75
2023/08/13 03:42:44;;;;;;;12.63;5.20;;;;;;;16.42;67.01;100951.43;127397;1101;101114;-77
2023/08/13 03:45:15;;;;;;;12.40;4.97;;;;;;;16.40;67.94;100946.11;127399;1102;101102;-77
2023/08/13 03:47:47;;;;;;;7.90;4.27;;;;;;;16.41;68.33;100955.84;127428;1101;101559;-76
2023/08/13 03:50:21;;;;;;;11.43;5.17;;;;;;;16.42;68.62;100962.02;126336;1105;102420;-76
2023/08/13 03:52:52;;;;;;;18.97;5.57;;;;;;;16.42;67.99;100965.55;126311;1105;101341;-76
2023/08/13 03:55:24;;;;;;;10.90;4.80;;;;;;;16.42;68.22;100957.61;126339;1103;101144;-76
2023/08/13 03:57:56;;;;;;;13.20;5.10;;;;;;;16.44;67.92;100958.55;126358;1105;101152;-77
2023/08/13 04:00:27;;;;;;;12.23;5.13;;;;;;;16.46;68.94;100956.81;127082;1101;101232;-76
2023/08/13 04:02:59;;;;;;;12.37;4.90;;;;;;;16.52;68.45;100956.94;126373;1102;101939;-75
2023/08/13 04:05:31;;;;;;;11.57;5.03;;;;;;;16.59;67.75;100954.40;127410;1101;101268;-76
2023/08/13 04:08:02;;;;;;;11.67;5.33;;;;;;;16.65;68.45;100965.11;127439;1101;101124;-75
2023/08/13 04:10:34;;;;;;;11.20;4.97;;;;;;;16.70;68.54;100969.64;126310;1105;101410;-76
2023/08/13 04:13:05;;;;;;;10.37;4.93;;;;;;;16.76;68.02;100966.19;127242;1103;101497;-76
2023/08/13 04:15:37;;;;;;;11.77;5.10;;;;;;;16.79;68.20;100968.89;127232;1104;101963;-77
2023/08/13 04:18:09;;;;;;;10.17;4.60;;;;;;;16.83;68.57;100973.39;126348;1104;101292;-76
2023/08/13 04:20:40;;;;;;;12.13;4.53;;;;;;;16.88;68.12;100963.78;127157;1103;101125;-76
2023/08/13 04:23:12;;;;;;;11.10;4.50;;;;;;;16.94;68.36;100973.61;127396;1101;101116;-75
2023/08/13 04:25:44;;;;;;;11.63;4.80;;;;;;;17.00;67.93;100964.85;127414;1102;101576;-76
2023/08/13 04:28:15;;;;;;;12.70;4.77;;;;;;;17.07;68.08;100972.05;126361;1102;101966;-75
2023/08/13 04:30:48;;;;;;;11.45;4.53;;;;;;;17.14;67.84;100971.30;126273;1102;101193;-75
2023/08/13 04:33:20;;;;;;;10.23;4.73;;;;;;;17.18;67.84;100973.11;126380;1104;101133;-76
2023/08/13 04:35:55;;;;;;;10.23;4.63;;;;;;;17.21;67.95;100972.28;127215;1104;101102;-75
2023/08/13 04:38:28;;;;;;;8.30;4.73;;;;;;;17.25;67.83;100971.48;126364;1104;101176;-76
2023/08/13 04:41:03;;;;;;;11.45;4.30;;;;;;;17.31;67.52;100982.18;126294;1102;101973;-77
2023/08/13 04:43:34;;;;;;;12.13;4.80;;;;;;;17.32;68.00;100983.06;126331;1104;101699;-77
2023/08/13 04:46:06;;;;;;;10.75;4.90;;;;;;;17.34;67.44;100979.58;127422;1101;101115;-77
2023/08/13 04:48:45;;;;;;;12.17;4.63;;;;;;;17.39;67.64;100982.27;126341;1105;101160;-77
2023/08/13 04:51:19;;;;;;;10.63;4.57;;;;;;;17.41;67.26;100977.91;127319;1102;101391;-76
2023/08/13 04:53:50;;;;;;;9.13;4.37;;;;;;;17.45;67.39;100979.71;127454;1101;101993;-76
2023/08/13 04:56:23;;;;;;;12.57;4.50;;;;;;;17.52;67.27;100983.38;126332;1102;101317;-76
2023/08/13 04:58:54;;;;;;;10.93;4.43;;;;;;;17.56;67.36;100983.44;126342;1102;101169;-77
2023/08/13 05:01:25;;;;;;;9.30;4.33;;;;;;;17.64;67.03;100985.29;126293;1102;101452;-79
2023/08/13 05:03:59;;;;;;;10.30;4.37;;;;;;;17.72;66.74;100988.97;126338;1104;101099;-78
2023/08/13 05:06:30;;;;;;;8.20;4.03;;;;;;;17.79;66.91;100991.73;126382;1105;102016;-78
2023/08/13 05:09:06;;;;;;;10.60;3.90;;;;;;;17.87;66.68;100998.89;126350;1104;101294;-78
2023/08/13 05:11:37;;;;;;;8.67;4.23;;;;;;;17.92;66.28;100992.81;126287;1105;101622;-78
2023/08/13 05:14:09;;;;;;;6.77;3.90;;;;;;;17.98;66.49;100997.30;126338;1102;101646;-78
2023/08/13 05:16:40;;;;;;;7.30;4.10;;;;;;;18.04;66.29;100994.72;127218;1103;101106;-76
2023/08/13 05:19:11;;;;;;;9.67;4.17;;;;;;;18.12;66.12;100992.17;127446;1101;102066;-76
2023/08/13 05:21:43;;;;;;;7.90;4.33;;;;;;;18.20;65.97;100992.27;126302;1102;101585;-76
2023/08/13 05:24:15;;;;;;;6.97;3.90;;;;;;;18.29;65.86;100992.38;126346;1105;101169;-77
2023/08/13 05:26:46;;;;;;;8.00;4.30;;;;;;;18.37;65.73;100989.81;127394;1101;101502;-76
2023/08/13 05:29:17;;;;;;;7.53;3.90;;;;;;;18.46;65.57;100989.91;127459;1101;101483;-77
2023/08/13 05:31:49;;;;;;;10.77;4.73;;;;;;;18.54;65.64;100990.00;127386;1101;101919;-77
2023/08/13 05:34:20;;;;;;;10.23;3.97;;;;;;;18.63;65.33;100995.42;127144;1103;101304;-76
2023/08/13 05:36:51;;;;;;;8.40;3.97;;;;;;;18.72;65.24;100984.88;127417;1102;101141;-76
2023/08/13 05:39:23;;;;;;;9.87;3.63;;;;;;;18.81;65.07;100990.29;127472;1100;101099;-80
2023/08/13 05:41:54;;;;;;;7.73;4.03;;;;;;;18.90;64.36;100991.28;127486;1101;101084;-76
2023/08/13 05:44:26;;;;;;;9.97;3.90;;;;;;;19.00;64.75;100998.47;126346;1104;117906;-76
2023/08/13 05:46:57;;;;;;;8.23;3.87;;;;;;;19.08;64.37;100991.45;126338;1105;101317;-76
2023/08/13 05:49:28;;;;;;;8.43;4.20;;;;;;;19.19;64.13;101000.40;126364;1104;101158;-75
2023/08/13 05:51:59;;;;;;;9.27;3.80;;;;;;;19.30;64.03;100995.16;126376;1103;101142;-77
2023/08/13 05:54:31;;;;;;;6.73;3.60;;;;;;;19.42;63.39;100996.16;127091;1104;101091;-76
2023/08/13 05:57:02;;;;;;;8.70;3.63;;;;;;;19.52;63.64;100996.20;127225;1104;102002;-77
2023/08/13 05:59:34;;;;;;;13.73;4.30;;;;;;;19.63;63.67;100992.73;127110;1103;101317;-78
2023/08/13 06:02:05;;;;;;;9.87;4.30;;;;;;;19.73;62.68;100990.14;127061;1103;101259;-77
2023/08/13 06:04:36;;;;;;;8.57;3.87;;;;;;;19.84;62.14;101005.33;126290;1105;101556;-78
2023/08/13 06:07:10;;;;;;;7.23;3.83;;;;;;;19.95;62.32;100998.28;127438;1101;101347;-78
2023/08/13 06:09:40;;;;;;;;;;;;;;;20.05;60.92;100999.20;127571;1102;102067;-78
2023/08/13 06:12:11;;;;;;;6.27;3.30;;;;;;;20.14;62.29;100999.25;127300;1101;101343;-79
2023/08/13 06:14:43;;;;;;;10.80;3.80;;;;;;;20.24;61.03;101006.41;127241;1101;101311;-76
2023/08/13 06:17:14;;;;;;;7.10;3.50;;;;;;;20.36;60.82;101004.67;127355;1102;101227;-78
2023/08/13 06:19:46;;;;;;;7.90;3.77;;;;;;;20.44;61.25;101006.48;126370;1102;101738;-78
2023/08/13 06:22:17;;;;;;;6.17;3.60;;;;;;;20.53;60.46;101002.06;127356;1101;101928;-79
2023/08/13 06:24:49;;;;;;;8.23;3.93;;;;;;;20.63;60.34;101009.17;126300;1105;101903;-80
2023/08/13 06:27:22;;;;;;;7.57;3.70;;;;;;;20.73;60.27;101007.47;126616;1102;101254;-78
2023/08/13 06:29:53;;;;;;;9.03;4.07;;;;;;;20.82;60.06;101002.16;127423;1101;101216;-79
2023/08/13 06:32:24;;;;;;;10.90;4.20;;;;;;;20.94;59.57;100998.59;127130;1103;101242;-78
2023/08/13 06:34:55;;;;;;;10.17;3.90;;;;;;;21.07;60.11;101002.19;127275;1102;101967;-78
2023/08/13 06:37:27;;;;;;;7.00;3.83;;;;;;;21.18;59.79;101003.07;127346;1101;101665;-79
2023/08/13 06:39:58;;;;;;;7.17;4.07;;;;;;;21.31;59.83;101010.16;127423;1101;101232;-78
2023/08/13 06:42:29;;;;;;;11.73;3.83;;;;;;;21.44;59.90;101003.06;127331;1101;101187;-79
2023/08/13 06:45:01;;;;;;;10.70;4.03;;;;;;;21.60;58.84;101005.71;126332;1105;101294;-78
2023/08/13 06:47:32;;;;;;;11.00;4.03;;;;;;;21.69;58.99;101003.02;127148;1103;102077;-79
2023/08/13 06:50:04;;;;;;;10.53;4.20;;;;;;;21.80;58.50;101005.67;126707;1103;101615;-79
2023/08/13 06:52:35;;;;;;;8.50;4.00;;;;;;;21.94;58.11;101008.30;126594;1103;101201;-78
2023/08/13 06:55:07;;;;;;;8.50;3.97;;;;;;;22.06;57.66;101009.17;127012;1101;101439;-78
2023/08/13 06:57:39;;;;;;;9.00;4.03;;;;;;;22.19;58.35;101010.02;126952;1102;101215;-79
2023/08/13 07:00:12;;;;;;;8.47;3.70;;;;;;;22.31;57.86;101005.53;126944;1102;102010;-80
2023/08/13 07:02:43;;;;;;;9.05;4.15;;;;;;;22.41;58.39;101009.95;126911;1102;101247;-78
2023/08/13 07:05:16;;;;;;;8.80;4.13;;;;;;;22.57;58.07;101000.92;127241;1101;101636;-79
2023/08/13 07:07:49;;;;;;;7.63;3.57;;;;;;;22.72;57.83;100999.95;127415;1101;101574;-78
2023/08/13 07:10:20;;;;;;;9.23;3.90;;;;;;;22.91;57.87;101000.71;127215;1103;101137;-78
2023/08/13 07:12:51;;;;;;;5.97;3.40;;;;;;;23.07;57.93;101001.47;127214;1101;102627;-77
2023/08/13 07:15:23;;;;;;;6.03;3.17;;;;;;;23.32;56.46;101004.86;127223;1101;101341;-78
2023/08/13 07:17:54;;;;;;;6.70;3.63;;;;;;;23.50;56.70;101003.81;126335;1104;101742;-78
2023/08/13 07:20:25;;;;;;;7.77;3.40;;;;;;;23.69;56.35;101003.63;127419;1102;101151;-78
2023/08/13 07:22:58;;;;;;;7.50;4.03;;;;;;;23.85;55.83;101002.57;127345;1102;101263;-80
2023/08/13 07:25:29;;;;;;;7.27;3.30;;;;;;;24.07;54.48;101004.13;126352;1105;101938;-78
2023/08/13 07:28:01;;;;;;;6.67;3.37;;;;;;;24.39;54.41;100999.23;127089;1104;101589;-79
2023/08/13 07:30:32;;;;;;;6.40;3.30;;;;;;;24.52;54.73;101002.63;127112;1103;101201;-80
2023/08/13 07:33:04;;;;;;;4.97;3.50;;;;;;;24.67;53.88;100993.52;127111;1103;101622;-79
2023/08/13 07:35:36;;;;;;;8.63;3.70;;;;;;;24.82;53.84;100991.50;127024;1104;101210;-79
2023/08/13 07:38:07;;;;;;;7.10;3.50;;;;;;;25.00;53.17;100993.89;127414;1102;102010;-79
2023/08/13 07:40:38;;;;;;;7.03;3.63;;;;;;;25.22;52.94;100993.54;127420;1101;101271;-79
2023/08/13 07:43:10;;;;;;;9.70;3.67;;;;;;;25.41;52.34;100995.00;127377;1101;101550;-77
2023/08/13 07:45:41;;;;;;;6.23;3.40;;;;;;;25.64;52.37;100996.39;127099;1101;101408;-78
2023/08/13 07:48:12;;;;;;;7.93;3.60;;;;;;;25.84;51.98;100990.64;127308;1102;101701;-79
2023/08/13 07:50:44;;;;;;;6.20;3.20;;;;;;;26.00;51.75;100996.61;127385;1101;102007;-79
2023/08/13 07:53:15;;;;;;;9.10;3.17;;;;;;;26.15;51.26;100981.98;127370;1101;101409;-80
2023/08/13 07:55:49;;;;;;;9.40;3.23;;;;;;;26.32;51.15;100978.92;127246;1102;101198;-80
2023/08/13 07:58:20;;;;;;;7.80;3.37;;;;;;;26.42;50.61;100976.91;127400;1101;101576;-79
2023/08/13 08:00:51;;;;;;;7.03;3.37;;;;;;;26.52;50.14;100978.45;127422;1102;101113;-78
2023/08/13 08:03:24;;;;;;;8.27;3.43;;;;;;;26.64;50.25;100974.59;127403;1101;101992;-79
2023/08/13 08:05:55;;;;;;;5.80;3.00;;;;;;;26.76;49.36;100977.03;127173;1101;101382;-79
2023/08/13 08:08:26;;;;;;;6.57;2.80;;;;;;;26.92;49.13;100974.84;127285;1101;101681;-77
2023/08/13 08:10:58;;;;;;;5.57;3.00;;;;;;;27.09;48.42;100969.91;127130;1101;101329;-79
2023/08/13 08:13:31;;;;;;;5.43;3.00;;;;;;;27.22;47.42;100966.91;127257;1100;101191;-78
2023/08/13 08:16:03;;;;;;;5.03;2.60;;;;;;;27.28;47.52;100968.56;127273;1101;102044;-79
2023/08/13 08:18:34;;;;;;;5.13;2.50;;;;;;;27.32;47.24;100959.52;127288;1100;101334;-80
2023/08/13 08:21:05;;;;;;;6.77;3.60;;;;;;;27.38;47.33;100957.54;127384;1102;101183;-80
2023/08/13 08:23:37;;;;;;;7.20;3.20;;;;;;;27.48;44.97;100958.16;127117;1101;101199;-78
2023/08/13 08:26:08;;;;;;;6.73;3.07;;;;;;;27.52;45.27;100957.16;127199;1102;101623;-80
2023/08/13 08:28:40;;;;;;;5.47;3.20;;;;;;;27.59;42.89;100956.05;127110;1101;101967;-79
2023/08/13 08:31:11;;;;;;;5.77;3.03;;;;;;;27.71;43.13;100953.95;127104;1101;101586;-80
2023/08/13 08:33:42;;;;;;;6.00;3.00;;;;;;;27.78;43.32;100945.66;127096;1101;101312;-79
2023/08/13 08:36:14;;;;;;;11.43;3.37;;;;;;;27.85;42.95;100951.74;127227;1102;101586;-79
2023/08/13 08:38:45;;;;;;;5.67;3.20;;;;;;;27.95;42.41;100947.86;126654;1102;101193;-80
2023/08/13 08:41:19;;;;;;;5.00;3.03;;;;;;;28.02;41.61;100945.89;127339;1102;101959;-81
2023/08/13 08:43:49;;;;;;;;;;;;;;;28.16;39.26;100948.17;127572;1101;101159;-81
2023/08/13 08:46:21;;;;;;;6.30;2.77;;;;;;;28.29;41.29;100941.45;127251;1101;101140;-79
2023/08/13 08:48:52;;;;;;;6.50;3.33;;;;;;;28.51;41.51;100940.77;127413;1101;101115;-78
2023/08/13 08:51:24;;;;;;;6.97;3.00;;;;;;;28.67;40.38;100930.39;127212;1104;101129;-77
2023/08/13 08:53:56;;;;;;;5.90;3.00;;;;;;;28.59;40.25;100927.06;127192;1103;102033;-79
2023/08/13 08:56:28;;;;;;;6.63;3.07;;;;;;;28.58;39.61;100930.66;127028;1102;101371;-79
2023/08/13 08:58:59;;;;;;;6.05;2.80;;;;;;;28.69;39.65;100928.55;127432;1102;101189;-78
2023/08/13 09:01:30;;;;;;;4.03;2.97;;;;;;;28.75;39.46;100924.73;127293;1102;101556;-78
2023/08/13 09:04:02;;;;;;;5.30;3.00;;;;;;;28.77;39.78;100926.46;127451;1101;101537;-80
2023/08/13 09:06:55;;;;;;;4.67;3.00;;;;;;;28.81;38.94;100928.14;127316;1101;101977;-78
2023/08/13 09:09:27;;;;;;;5.80;3.20;;;;;;;28.76;38.06;100918.41;127352;1101;101292;-78
2023/08/13 09:12:00;;;;;;;7.40;3.08;;;;;;;28.68;38.07;100924.06;127435;1101;101114;-77
2023/08/13 09:14:32;;;;;;;5.80;2.90;;;;;;;28.73;38.23;100932.02;127348;1101;101573;-78
2023/08/13 09:17:03;;;;;;;6.77;2.70;;;;;;;28.74;37.78;100922.99;127152;1102;101375;-78
2023/08/13 09:19:35;;;;;;;6.53;2.93;;;;;;;28.78;37.25;100928.23;127146;1101;102395;-79
2023/08/13 09:22:07;;;;;;;5.63;2.83;;;;;;;28.74;36.05;100931.09;127136;1101;101381;-77
2023/08/13 09:24:41;;;;;;;5.20;2.90;;;;;;;28.64;36.14;100925.99;127359;1101;101303;-77
2023/08/13 09:27:12;;;;;;;7.13;2.90;;;;;;;28.77;35.94;100922.89;126888;1102;102281;-78
2023/08/13 09:29:44;;;;;;;4.37;3.03;;;;;;;28.91;36.04;100922.42;127339;1102;101140;-78
2023/08/13 09:32:18;;;;;;;3.87;2.80;;;;;;;29.08;36.72;100919.11;127225;1101;102022;-79
2023/08/13 09:34:51;;;;;;;4.27;2.80;;;;;;;29.26;35.75;100923.91;126300;1102;101501;-78
2023/08/13 09:37:25;;;;;;;5.33;2.95;;;;;;;29.34;35.11;100919.13;127311;1101;101260;-79
2023/08/13 09:39:57;;;;;;;4.77;2.70;;;;;;;29.52;34.98;100913.98;127349;1101;101210;-78
2023/08/13 09:42:33;;;;;;;4.30;2.83;;;;;;;29.64;34.92;100910.83;127329;1101;101460;-79
2023/08/13 09:45:06;;;;;;;6.87;3.27;;;;;;;29.72;34.87;100921.36;127360;1101;101933;-79
2023/08/13 09:47:41;;;;;;;3.33;2.80;;;;;;;29.81;34.94;100903.92;127168;1101;101574;-80
2023/08/13 09:50:16;;;;;;;3.53;2.80;;;;;;;29.97;33.57;100910.52;127315;1101;101600;-78
2023/08/13 09:52:49;;;;;;;3.37;2.37;;;;;;;29.92;32.08;100913.41;127314;1101;101300;-77
2023/08/13 09:55:24;;;;;;;4.63;2.97;;;;;;;29.86;31.92;100912.77;127046;1102;101241;-79
2023/08/13 09:57:58;;;;;;;3.70;2.80;;;;;;;29.80;32.35;100902.18;127082;1101;101922;-80
2023/08/13 10:00:30;;;;;;;3.50;2.70;;;;;;;29.72;31.79;100895.20;127364;1101;101355;-79
2023/08/13 10:03:02;;;;;;;3.77;2.73;;;;;;;29.67;31.54;100905.31;127341;1101;101226;-78
2023/08/13 10:05:35;;;;;;;5.25;3.00;;;;;;;29.63;31.80;100909.06;127369;1101;101185;-80
2023/08/13 10:08:08;;;;;;;3.70;2.70;;;;;;;29.58;31.01;100901.12;127204;1101;101290;-77
2023/08/13 10:10:40;;;;;;;5.22;2.80;;;;;;;29.53;31.00;100905.83;127079;1103;102020;-80
2023/08/13 10:13:12;;;;;;;4.53;2.70;;;;;;;29.48;31.04;100907.83;127294;1102;101213;-79
2023/08/13 10:15:45;;;;;;;6.00;3.10;;;;;;;29.55;31.45;100901.23;126388;1102;101641;-79
2023/08/13 10:18:18;;;;;;;3.53;2.63;;;;;;;29.75;31.72;100899.62;127222;1101;101401;-79
2023/08/13 10:20:49;;;;;;;5.17;2.90;;;;;;;29.97;31.40;100891.58;127447;1102;101556;-78
2023/08/13 10:23:23;;;;;;;4.63;2.73;;;;;;;30.05;31.56;100886.73;127024;1103;101965;-78
2023/08/13 10:25:56;;;;;;;5.07;2.60;;;;;;;30.08;31.35;100892.03;127271;1102;101366;-80
2023/08/13 10:28:31;;;;;;;2.98;2.55;;;;;;;30.05;31.19;100892.16;127028;1102;101176;-79
2023/08/13 10:31:30;;;;;;;4.43;2.80;;;;;;;29.88;30.46;100897.34;126352;1102;101263;-78
2023/08/13 10:34:11;;;;;;;5.03;2.63;;;;;;;29.75;30.69;100897.78;127369;1101;101200;-78
2023/08/13 10:36:52;;;;;;;3.10;2.67;;;;;;;29.81;30.85;100890.40;127310;1101;101966;-83
2023/08/13 10:39:40;;;;;;;3.53;2.60;;;;;;;29.90;30.84;100888.24;126952;1104;101881;-78
2023/08/13 10:42:48;;;;;;;4.50;2.77;;;;;;;29.77;30.37;100892.31;126345;1102;101682;-78
2023/08/13 10:45:22;;;;;;;4.27;2.97;;;;;;;29.75;30.40;100888.80;126316;1102;101200;-80
2023/08/13 10:47:55;;;;;;;4.33;2.70;;;;;;;29.82;30.36;100882.23;127242;1103;101209;-80
2023/08/13 10:50:39;;;;;;;4.40;2.47;;;;;;;29.73;29.60;100878.04;127272;1101;118595;-80
2023/08/13 10:53:12;;;;;;;5.30;2.87;;;;;;;29.58;29.07;100884.89;127387;1101;101421;-80
2023/08/13 10:55:46;;;;;;;3.58;2.70;;;;;;;29.46;28.88;100887.19;127400;1101;101296;-80
2023/08/13 10:58:29;;;;;;;2.60;2.40;;;;;;;29.38;28.95;100888.33;127356;1101;101441;-78
2023/08/13 11:01:11;;;;;;;5.27;2.70;;;;;;;29.36;28.87;100886.65;127319;1101;101188;-78
2023/08/13 11:03:47;;;;;;;3.67;2.60;;;;;;;29.34;29.31;100880.39;127434;1101;101995;-79
2023/08/13 11:06:21;;;;;;;3.60;2.43;;;;;;;29.48;29.43;100874.48;126360;1102;101317;-79
2023/08/13 11:08:52;;;;;;;2.83;2.40;;;;;;;29.60;29.73;100857.80;127314;1101;101454;-79
2023/08/13 11:11:24;;;;;;;6.33;2.73;;;;;;;29.68;29.96;100862.92;127273;1102;101236;-79
2023/08/13 11:13:55;;;;;;;5.03;2.80;;;;;;;29.73;30.00;100858.20;118481;1101;10001933;-79
2023/08/13 11:16:30;;;;;;;7.97;2.67;;;;;;;29.72;29.20;100857.34;127407;1101;101315;-79
2023/08/13 11:19:04;;;;;;;3.73;2.43;;;;;;;29.70;29.36;100855.62;127222;1101;101815;-78
2023/08/13 11:21:35;;;;;;;3.10;2.53;;;;;;;29.67;28.89;100859.34;126331;1105;101772;-79
2023/08/13 11:24:10;;;;;;;5.23;2.80;;;;;;;29.64;28.77;100862.16;127340;1101;101917;-78
2023/08/13 11:26:41;;;;;;;3.23;2.70;;;;;;;29.60;28.66;100857.80;126357;1102;101748;-78
2023/08/13 11:29:12;;;;;;;3.47;2.67;;;;;;;29.58;28.67;100870.50;126868;1101;102930;-78
2023/08/13 11:31:47;;;;;;;5.10;3.03;;;;;;;29.56;28.72;100853.44;126758;1103;101240;-78